Terminal Aerodrome Forecast
Issued by NWS Grand Forks, ND

Home | Current Version | Previous Version | Graphics & Text | Print | Product List | Glossary On
Versions: 1 2 3 4 5 6 7 8 9 10 11 12
000
FTUS43 KFGF 220500
TAFFAR
TAF
KFAR 220520Z 2206/2306 16020G30KT P6SM SCT120
     FM221400 16020G30KT P6SM BKN120
     FM221700 18015KT P6SM VCSH BKN060=

USA.gov is the U.S. government's official web portal to all federal, state and local government web resources and services.